Time;durP1;ratioP1;P1;durP2;ratioP2;P2;SDS_P1;SDS_P2;PMS_P1;PMS_P2;Temp;Humidity;BMP_temperature;BMP_pressure;BME280_temperature;BME280_humidity;BME280_pressure;Samples;Min_cycle;Max_cycle;Signal;HPM_P1;HPM_P2
2024/03/07 00:02:45;;;;;;;40.30;27.83;;;;;;;6.48;100.00;102455.31;5114235;28;20496;-72
2024/03/07 00:05:33;;;;;;;39.78;27.85;;;;;;;6.51;100.00;102444.06;5113736;28;20496;-73
2024/03/07 00:08:21;;;;;;;37.00;27.80;;;;;;;6.54;100.00;102446.38;5098675;28;20051;-72
2024/03/07 00:11:09;;;;;;;38.25;27.88;;;;;;;6.47;100.00;102451.78;5114152;28;20055;-72
2024/03/07 00:13:57;;;;;;;35.45;27.33;;;;;;;6.42;100.00;102450.69;5114492;28;20051;-71
2024/03/07 00:16:45;;;;;;;36.13;28.15;;;;;;;6.39;100.00;102462.75;5129396;28;20039;-71
2024/03/07 00:19:33;;;;;;;37.38;27.58;;;;;;;6.39;100.00;102457.31;5120436;28;20062;-71
2024/03/07 00:22:21;;;;;;;41.63;29.52;;;;;;;6.40;100.00;102454.44;5125653;28;20043;-72
2024/03/07 00:25:09;;;;;;;36.90;28.17;;;;;;;6.37;100.00;102459.41;5102279;28;20121;-71
2024/03/07 00:28:02;;;;;;;37.55;28.65;;;;;;;6.39;100.00;102452.75;5122619;28;20032;-72
2024/03/07 00:30:50;;;;;;;41.78;29.83;;;;;;;6.39;100.00;102450.03;5122650;28;20036;-71
2024/03/07 00:33:38;;;;;;;41.92;29.23;;;;;;;6.36;100.00;102455.84;5118606;28;20144;-71
2024/03/07 00:36:47;;;;;;;38.35;29.15;;;;;;;6.38;100.00;102451.09;5111974;27;20050;-71
2024/03/07 00:39:35;;;;;;;37.97;28.42;;;;;;;6.38;100.00;102451.09;5116826;27;20104;-72
2024/03/07 00:42:23;;;;;;;46.00;29.55;;;;;;;6.44;100.00;102454.03;5103312;27;20047;-72
2024/03/07 00:45:11;;;;;;;38.67;29.48;;;;;;;6.42;100.00;102443.38;5125311;27;20074;-72
2024/03/07 00:48:00;;;;;;;40.47;28.67;;;;;;;6.35;100.00;102451.50;5098327;28;20039;-71
2024/03/07 00:50:48;;;;;;;39.67;29.17;;;;;;;6.32;100.00;102448.34;5097486;28;20052;-71
2024/03/07 00:53:37;;;;;;;37.78;28.25;;;;;;;6.33;100.00;102452.72;5111338;28;20047;-71
2024/03/07 00:56:25;;;;;;;41.38;29.13;;;;;;;6.28;100.00;102445.22;5109661;27;20514;-71
2024/03/07 00:59:14;;;;;;;38.65;30.08;;;;;;;6.21;100.00;102444.34;5103053;27;20418;-71
2024/03/07 01:02:02;;;;;;;41.80;30.77;;;;;;;6.17;100.00;102443.03;5103003;27;20055;-72
2024/03/07 01:04:50;;;;;;;40.25;29.48;;;;;;;6.02;100.00;102439.63;5116097;27;20427;-71
2024/03/07 01:07:38;;;;;;;37.78;27.73;;;;;;;5.91;100.00;102443.66;5102706;27;20196;-71
2024/03/07 01:10:28;;;;;;;46.20;29.10;;;;;;;5.84;100.00;102430.09;5132099;27;20051;-71
2024/03/07 01:13:21;;;;;;;41.17;30.40;;;;;;;5.85;100.00;102434.47;5103399;27;20493;-71
2024/03/07 01:16:10;;;;;;;38.75;29.70;;;;;;;5.85;100.00;102434.47;5130010;27;20122;-72
2024/03/07 01:18:58;;;;;;;41.42;30.33;;;;;;;5.86;100.00;102433.44;5131660;27;20047;-72
2024/03/07 01:21:46;;;;;;;42.45;30.02;;;;;;;5.88;100.00;102434.06;5116816;27;20460;-72
2024/03/07 01:24:34;;;;;;;39.10;29.50;;;;;;;5.87;100.00;102432.41;5131386;27;20047;-71
2024/03/07 01:27:24;;;;;;;41.53;30.27;;;;;;;5.82;100.00;102428.59;5130195;27;20039;-72
2024/03/07 01:30:13;;;;;;;39.83;28.90;;;;;;;5.81;100.00;102421.53;5102801;27;20054;-71
2024/03/07 01:33:01;;;;;;;39.70;29.17;;;;;;;5.75;100.00;102421.28;5130111;27;20145;-71
2024/03/07 01:35:49;;;;;;;40.83;29.98;;;;;;;5.63;100.00;102422.00;5101904;27;20050;-71
2024/03/07 01:38:37;;;;;;;38.05;28.52;;;;;;;5.59;100.00;102415.34;5132649;27;20121;-72
2024/03/07 01:41:25;;;;;;;42.60;30.48;;;;;;;5.53;100.00;102420.50;5095099;28;20062;-71
2024/03/07 01:44:13;;;;;;;40.05;29.15;;;;;;;5.49;100.00;102418.38;5096739;28;20067;-72
2024/03/07 01:47:03;;;;;;;41.33;29.05;;;;;;;5.45;100.00;102412.50;5066981;28;20055;-72
2024/03/07 01:49:51;;;;;;;43.50;30.40;;;;;;;5.48;100.00;102412.16;5110493;28;20085;-72
2024/03/07 01:52:41;;;;;;;41.50;30.30;;;;;;;5.49;100.00;102415.69;5096842;28;20051;-72
2024/03/07 01:55:29;;;;;;;36.47;27.95;;;;;;;5.49;100.00;102413.81;5110282;28;20068;-72
2024/03/07 01:58:19;;;;;;;39.97;29.80;;;;;;;5.49;100.00;102404.88;5111457;28;20123;-72
2024/03/07 02:01:08;;;;;;;45.83;31.10;;;;;;;5.47;100.00;102401.50;5083059;28;20499;-71
2024/03/07 02:03:56;;;;;;;41.65;30.17;;;;;;;5.44;100.00;102405.44;5096129;28;20091;-71
2024/03/07 02:06:44;;;;;;;41.70;30.90;;;;;;;5.47;100.00;102393.41;5107308;27;20067;-72
2024/03/07 02:09:32;;;;;;;42.72;31.23;;;;;;;5.48;100.00;102397.75;5131290;27;20112;-71
2024/03/07 02:12:20;;;;;;;45.40;32.15;;;;;;;5.47;100.00;102388.81;5130872;27;20051;-71
2024/03/07 02:15:09;;;;;;;41.72;29.90;;;;;;;5.49;100.00;102392.19;5114510;27;20070;-72
2024/03/07 02:17:57;;;;;;;43.45;30.58;;;;;;;5.51;100.00;102390.13;5130515;27;20035;-72
2024/03/07 02:20:48;;;;;;;43.03;30.67;;;;;;;5.41;100.00;102386.91;5131063;27;20065;-72
2024/03/07 02:23:37;;;;;;;38.75;29.77;;;;;;;5.32;100.00;102385.38;5130830;27;20070;-72
2024/03/07 02:26:25;;;;;;;43.95;31.05;;;;;;;5.34;100.00;102386.03;5130710;27;20073;-72
2024/03/07 02:29:13;;;;;;;46.50;29.73;;;;;;;5.40;100.00;102384.41;5115122;28;20107;-72
2024/03/07 02:32:01;;;;;;;43.88;30.65;;;;;;;5.38;100.00;102384.59;5103398;28;20039;-72
2024/03/07 02:34:49;;;;;;;41.92;30.30;;;;;;;5.33;100.00;102376.22;5101243;28;20466;-72
2024/03/07 02:37:37;;;;;;;41.95;29.80;;;;;;;5.29;100.00;102388.44;5101991;28;20046;-71
2024/03/07 02:40:26;;;;;;;48.33;32.78;;;;;;;5.19;100.00;102379.84;5074784;28;20048;-70
2024/03/07 02:43:15;;;;;;;48.28;33.25;;;;;;;5.07;100.00;102380.34;5064981;28;20123;-70
2024/03/07 02:46:03;;;;;;;48.45;31.95;;;;;;;5.00;100.00;102374.03;5084331;28;20047;-71
2024/03/07 02:48:51;;;;;;;44.70;33.25;;;;;;;4.98;100.00;102375.25;5119634;27;20085;-71
2024/03/07 02:51:40;;;;;;;44.63;30.45;;;;;;;5.06;100.00;102372.47;5097976;28;20180;-71
2024/03/07 02:54:28;;;;;;;40.53;29.15;;;;;;;5.10;100.00;102368.34;5126847;27;20083;-72
2024/03/07 02:57:16;;;;;;;38.58;28.85;;;;;;;5.11;100.00;102378.13;5134472;27;20068;-72
2024/03/07 03:00:19;;;;;;;44.67;30.17;;;;;;;5.08;100.00;102370.41;5072169;28;20047;-71
2024/03/07 03:03:07;;;;;;;44.03;30.80;;;;;;;5.11;100.00;102373.53;5108382;28;20457;-72
2024/03/07 03:05:55;;;;;;;40.35;29.02;;;;;;;5.11;100.00;102368.13;5099206;28;20043;-72
2024/03/07 03:08:43;;;;;;;42.40;30.38;;;;;;;5.16;100.00;102369.44;5082110;27;20051;-72
2024/03/07 03:11:32;;;;;;;37.63;28.17;;;;;;;5.09;100.00;102370.19;5088089;28;20036;-72
2024/03/07 03:14:21;;;;;;;37.88;30.13;;;;;;;5.09;100.00;102363.97;5114552;28;20051;-72
2024/03/07 03:17:09;;;;;;;41.97;28.80;;;;;;;5.13;100.00;102360.69;5085487;28;20237;-72
2024/03/07 03:19:57;;;;;;;41.97;29.10;;;;;;;5.10;100.00;102360.25;5099483;27;20043;-72
2024/03/07 03:22:45;;;;;;;40.58;29.73;;;;;;;5.09;100.00;102359.38;5105841;28;20514;-72
2024/03/07 03:25:34;;;;;;;42.83;30.02;;;;;;;5.08;100.00;102363.13;5056731;28;20193;-73
2024/03/07 03:28:23;;;;;;;41.28;29.52;;;;;;;5.12;100.00;102359.03;5099407;28;20069;-73
2024/03/07 03:31:13;;;;;;;44.03;28.60;;;;;;;5.12;100.00;102352.75;5099896;28;20043;-72
2024/03/07 03:34:02;;;;;;;42.38;30.02;;;;;;;5.15;100.00;102357.78;5105836;28;20055;-72
2024/03/07 03:36:50;;;;;;;38.65;27.30;;;;;;;5.12;100.00;102348.22;5113844;28;20180;-72
2024/03/07 03:39:38;;;;;;;39.88;28.20;;;;;;;5.04;100.00;102350.19;5094686;28;20128;-72
2024/03/07 03:42:26;;;;;;;39.45;28.13;;;;;;;5.08;100.00;102351.50;5065147;28;20082;-73
2024/03/07 03:45:17;;;;;;;40.03;29.80;;;;;;;5.09;100.00;102348.56;5077594;28;20055;-72
2024/03/07 03:48:05;;;;;;;39.38;26.65;;;;;;;5.10;100.00;102334.06;5085109;28;20047;-73
2024/03/07 03:50:54;;;;;;;41.60;29.08;;;;;;;5.12;100.00;102334.69;5085701;28;20039;-73
2024/03/07 03:53:43;;;;;;;41.10;28.42;;;;;;;5.10;100.00;102334.06;5085497;28;20043;-72
2024/03/07 03:56:31;;;;;;;39.05;28.33;;;;;;;5.07;100.00;102333.59;5097588;28;20141;-72
2024/03/07 03:59:20;;;;;;;38.10;28.60;;;;;;;5.00;100.00;102332.69;5093192;28;20060;-72
2024/03/07 04:02:08;;;;;;;34.55;26.67;;;;;;;5.00;100.00;102333.53;5077234;28;20043;-72
2024/03/07 04:04:56;;;;;;;37.90;28.25;;;;;;;5.00;100.00;102335.41;5108864;28;20105;-72
2024/03/07 04:07:44;;;;;;;39.05;28.23;;;;;;;5.01;100.00;102326.28;5076894;28;20347;-72
2024/03/07 04:10:32;;;;;;;37.28;26.83;;;;;;;5.01;100.00;102332.50;5078710;28;20449;-72
2024/03/07 04:13:22;;;;;;;38.47;28.42;;;;;;;5.00;100.00;102332.69;5078571;28;20205;-72
2024/03/07 04:16:10;;;;;;;40.47;29.33;;;;;;;4.92;100.00;102336.38;5073646;28;20083;-72
2024/03/07 04:18:58;;;;;;;40.58;29.63;;;;;;;4.86;100.00;102331.75;5078815;28;20040;-71
2024/03/07 04:21:47;;;;;;;37.90;28.27;;;;;;;4.86;100.00;102329.88;5091468;28;20048;-72
2024/03/07 04:24:35;;;;;;;39.53;28.27;;;;;;;4.94;100.00;102338.88;5092268;28;20488;-71
2024/03/07 04:27:23;;;;;;;41.17;28.95;;;;;;;4.93;100.00;102338.06;5109392;28;20067;-72
2024/03/07 04:30:11;;;;;;;40.88;28.70;;;;;;;4.92;100.00;102330.97;5097632;28;20488;-72
2024/03/07 04:33:00;;;;;;;37.85;27.23;;;;;;;4.96;100.00;102331.44;5112666;28;20149;-71
2024/03/07 04:35:48;;;;;;;39.17;27.60;;;;;;;4.94;100.00;102334.31;5096730;27;20044;-71
2024/03/07 04:38:36;;;;;;;38.47;28.98;;;;;;;4.98;100.00;102334.75;5103598;28;20048;-71
2024/03/07 04:41:24;;;;;;;42.72;29.58;;;;;;;4.97;100.00;102333.09;5117590;28;20107;-71
2024/03/07 04:44:12;;;;;;;38.22;28.67;;;;;;;4.96;100.00;102329.56;5090542;28;20055;-72
2024/03/07 04:47:00;;;;;;;38.97;27.85;;;;;;;4.95;100.00;102330.56;5129663;27;20043;-71
2024/03/07 04:49:48;;;;;;;38.67;28.52;;;;;;;4.91;100.00;102329.31;5135532;28;20108;-70
2024/03/07 04:52:38;;;;;;;39.50;29.15;;;;;;;4.88;100.00;102332.38;5135210;28;20070;-72
2024/03/07 04:55:27;;;;;;;39.60;28.60;;;;;;;4.83;100.00;102332.13;5116691;28;20058;-71
2024/03/07 04:58:15;;;;;;;40.92;29.50;;;;;;;4.79;100.00;102333.56;5083779;28;20047;-72
2024/03/07 05:01:03;;;;;;;41.08;29.48;;;;;;;4.78;100.00;102324.59;5111441;28;20067;-72
2024/03/07 05:03:52;;;;;;;40.50;29.33;;;;;;;4.74;100.00;102330.56;5083824;28;20134;-72
2024/03/07 05:06:40;;;;;;;44.55;29.95;;;;;;;4.65;100.00;102336.09;5111314;28;20132;-72
2024/03/07 05:09:29;;;;;;;36.28;26.98;;;;;;;4.68;100.00;102335.72;5049116;28;20047;-72
2024/03/07 05:12:17;;;;;;;41.75;29.10;;;;;;;4.81;100.00;102331.47;5062234;28;20158;-72
2024/03/07 05:15:06;;;;;;;41.67;30.83;;;;;;;4.80;100.00;102329.81;5075711;28;20052;-71
2024/03/07 05:17:56;;;;;;;42.03;29.75;;;;;;;4.74;100.00;102333.25;5055021;28;20169;-71
2024/03/07 05:20:44;;;;;;;44.92;30.40;;;;;;;4.75;100.00;102332.25;5095492;28;20422;-72
2024/03/07 05:23:32;;;;;;;44.10;29.48;;;;;;;4.72;100.00;102336.19;5096761;28;20040;-71
2024/03/07 05:26:20;;;;;;;41.65;29.67;;;;;;;4.76;100.00;102331.22;5082203;28;20040;-71
2024/03/07 05:29:09;;;;;;;41.38;29.45;;;;;;;4.78;100.00;102334.56;5103716;28;20412;-72
2024/03/07 05:32:22;;;;;;;39.97;29.77;;;;;;;4.77;100.00;102338.31;5111031;28;20114;-72
2024/03/07 05:35:11;;;;;;;38.47;28.33;;;;;;;4.72;100.00;102340.75;5098081;28;20048;-72
2024/03/07 05:37:59;;;;;;;38.50;28.98;;;;;;;4.70;100.00;102339.06;5069479;28;20051;-72
2024/03/07 05:40:48;;;;;;;42.35;30.15;;;;;;;4.66;100.00;102343.16;5096252;28;20127;-72
2024/03/07 05:43:37;;;;;;;46.40;29.42;;;;;;;4.75;100.00;102335.78;5082062;28;20047;-72
2024/03/07 05:46:25;;;;;;;46.33;31.75;;;;;;;4.80;100.00;102332.50;5097475;28;20095;-72
2024/03/07 05:49:14;;;;;;;43.50;30.15;;;;;;;4.76;100.00;102336.63;5096462;28;20099;-72
2024/03/07 05:52:02;;;;;;;45.25;30.35;;;;;;;4.74;100.00;102334.13;5097186;28;20052;-72
2024/03/07 05:54:50;;;;;;;39.97;29.77;;;;;;;4.70;100.00;102339.06;5110868;28;20176;-72
2024/03/07 05:57:39;;;;;;;42.33;29.95;;;;;;;4.75;100.00;102332.25;5063288;28;20060;-72
2024/03/07 06:00:34;;;;;;;43.95;29.25;;;;;;;4.69;100.00;102334.69;5110200;28;20044;-73
2024/03/07 06:03:25;;;;;;;42.22;30.65;;;;;;;4.67;100.00;102334.06;5069266;28;20480;-72
2024/03/07 06:06:13;;;;;;;50.55;31.40;;;;;;;4.63;100.00;102327.34;5095774;28;20043;-72
2024/03/07 06:09:07;;;;;;;37.80;28.73;;;;;;;4.64;100.00;102331.75;5092575;28;20538;-72
2024/03/07 06:11:56;;;;;;;42.15;30.40;;;;;;;4.65;100.00;102328.00;5035402;28;20051;-72
2024/03/07 06:14:44;;;;;;;39.53;28.55;;;;;;;4.62;100.00;102336.50;5075197;28;20050;-73
2024/03/07 06:17:32;;;;;;;38.47;29.17;;;;;;;4.60;100.00;102332.31;5062468;28;20098;-72
2024/03/07 06:20:24;;;;;;;42.15;29.90;;;;;;;4.58;100.00;102329.78;5111947;28;20052;-72
2024/03/07 06:23:15;;;;;;;41.63;29.45;;;;;;;4.61;100.00;102328.56;5097249;28;20044;-72
2024/03/07 06:26:12;;;;;;;39.90;29.30;;;;;;;4.55;100.00;102335.59;5097638;28;20364;-72
2024/03/07 06:29:00;;;;;;;40.70;29.23;;;;;;;4.51;100.00;102328.88;5091178;28;20488;-72
2024/03/07 06:31:50;;;;;;;42.90;29.60;;;;;;;4.48;100.00;102334.66;5111234;28;20044;-72
2024/03/07 06:34:38;;;;;;;42.78;29.00;;;;;;;4.51;100.00;102330.75;5110820;28;20474;-73
2024/03/07 06:37:27;;;;;;;42.40;28.50;;;;;;;4.48;100.00;102329.28;5096300;28;20496;-72
2024/03/07 06:40:21;;;;;;;36.58;27.02;;;;;;;4.44;100.00;102326.09;5109090;28;20085;-71
2024/03/07 06:43:12;;;;;;;45.33;30.00;;;;;;;4.48;100.00;102330.09;5110180;28;20355;-71
2024/03/07 06:46:00;;;;;;;38.70;29.05;;;;;;;4.47;100.00;102339.25;5082537;28;20052;-72
2024/03/07 06:48:48;;;;;;;37.10;26.60;;;;;;;4.48;100.00;102331.97;5068871;28;20043;-72
2024/03/07 06:51:36;;;;;;;37.88;27.67;;;;;;;4.55;100.00;102330.19;5081438;28;20043;-71
2024/03/07 06:54:24;;;;;;;37.42;25.33;;;;;;;4.58;100.00;102332.50;5110151;28;20062;-72
2024/03/07 06:57:13;;;;;;;41.53;29.10;;;;;;;4.57;100.00;102332.66;5116616;28;20172;-72
2024/03/07 07:00:10;;;;;;;36.53;27.25;;;;;;;4.44;100.00;102330.66;5072404;28;20530;-72
2024/03/07 07:02:58;;;;;;;40.88;28.73;;;;;;;4.42;100.00;102330.03;5077318;28;20424;-71
2024/03/07 07:05:48;;;;;;;36.53;27.42;;;;;;;4.53;100.00;102332.22;5061381;28;20044;-72
2024/03/07 07:08:36;;;;;;;41.47;31.27;;;;;;;4.57;100.00;102333.53;5081691;28;20040;-71
2024/03/07 07:11:24;;;;;;;43.65;32.47;;;;;;;4.53;100.00;102324.13;5095412;28;20063;-71
2024/03/07 07:14:13;;;;;;;40.80;31.25;;;;;;;4.58;100.00;102323.56;5094703;28;20060;-72
2024/03/07 07:17:05;;;;;;;42.53;31.23;;;;;;;4.46;100.00;102320.53;5070604;28;20041;-71
2024/03/07 07:20:00;;;;;;;40.88;27.38;;;;;;;4.43;100.00;102316.34;5056155;28;20040;-72
2024/03/07 07:22:49;;;;;;;39.38;27.98;;;;;;;4.51;100.00;102319.97;5055202;28;20085;-70
2024/03/07 07:25:37;;;;;;;37.63;27.05;;;;;;;4.49;100.00;102315.56;5061831;28;20058;-71
2024/03/07 07:28:25;;;;;;;39.67;27.27;;;;;;;4.49;100.00;102320.97;5055726;28;20117;-71
2024/03/07 07:31:13;;;;;;;39.17;27.05;;;;;;;4.53;100.00;102316.03;5104572;28;20050;-71
2024/03/07 07:34:04;;;;;;;35.92;26.20;;;;;;;4.59;100.00;102323.34;5102370;28;20040;-71
2024/03/07 07:36:53;;;;;;;39.25;27.60;;;;;;;4.63;100.00;102321.97;5098550;28;20054;-71
2024/03/07 07:39:41;;;;;;;39.75;27.45;;;;;;;4.65;100.00;102319.91;5085774;28;20071;-71
2024/03/07 07:42:29;;;;;;;37.80;25.63;;;;;;;4.67;100.00;102317.03;5100307;27;20507;-71
2024/03/07 07:45:17;;;;;;;36.90;26.33;;;;;;;4.68;100.00;102314.13;5065652;28;20502;-70
2024/03/07 07:48:06;;;;;;;31.10;23.77;;;;;;;4.69;100.00;102307.69;5093366;28;20412;-71
2024/03/07 07:50:54;;;;;;;35.00;26.15;;;;;;;4.73;100.00;102315.41;5101722;28;20044;-71
2024/03/07 07:53:44;;;;;;;36.38;26.10;;;;;;;4.75;100.00;102313.34;5113374;28;20044;-71
2024/03/07 07:56:32;;;;;;;36.22;24.85;;;;;;;4.83;100.00;102315.91;5099807;28;20054;-71
2024/03/07 07:59:20;;;;;;;34.03;25.85;;;;;;;4.81;100.00;102316.13;5099812;28;20146;-72
2024/03/07 08:02:08;;;;;;;32.38;24.65;;;;;;;4.86;100.00;102315.56;5111980;28;20144;-71
2024/03/07 08:04:56;;;;;;;33.53;24.00;;;;;;;4.90;100.00;102316.81;5131215;27;20104;-71
2024/03/07 08:07:45;;;;;;;28.35;19.65;;;;;;;4.85;100.00;102321.97;5135715;27;20080;-71
2024/03/07 08:10:35;;;;;;;32.53;23.05;;;;;;;4.86;100.00;102321.78;5117757;27;20059;-70
2024/03/07 08:13:25;;;;;;;35.33;24.02;;;;;;;4.95;100.00;102324.34;5089444;28;20047;-72
2024/03/07 08:16:13;;;;;;;33.00;24.58;;;;;;;4.95;100.00;102314.38;5113097;27;20495;-71
2024/03/07 08:19:03;;;;;;;31.33;23.10;;;;;;;5.01;100.00;102318.19;5100401;28;20040;-71
2024/03/07 08:21:51;;;;;;;26.85;20.55;;;;;;;5.07;100.00;102317.38;4726869;28;10001531;-71
2024/03/07 08:24:39;;;;;;;31.35;23.83;;;;;;;5.05;100.00;102314.91;5089558;28;20067;-70
2024/03/07 08:27:28;;;;;;;30.23;23.80;;;;;;;5.06;100.00;102315.72;5075564;28;20463;-70
2024/03/07 08:30:16;;;;;;;23.13;16.58;;;;;;;5.08;100.00;102308.28;5089583;28;20126;-73
2024/03/07 08:33:05;;;;;;;28.60;20.48;;;;;;;5.18;100.00;102316.03;5074760;28;20475;-70
2024/03/07 08:35:54;;;;;;;27.55;20.63;;;;;;;5.20;100.00;102316.69;5100896;28;20050;-71
2024/03/07 08:38:46;;;;;;;29.30;22.45;;;;;;;5.25;100.00;102314.22;5099668;27;20047;-70
2024/03/07 08:41:40;;;;;;;33.50;23.92;;;;;;;5.21;100.00;102318.34;5095222;28;20043;-72
2024/03/07 08:44:29;;;;;;;30.17;24.83;;;;;;;5.21;100.00;102318.34;5110247;28;20055;-71
2024/03/07 08:47:17;;;;;;;29.67;23.80;;;;;;;5.21;100.00;102316.47;5111205;28;20127;-71
2024/03/07 08:50:08;;;;;;;32.22;22.00;;;;;;;5.20;100.00;102311.28;5112161;28;20411;-72
2024/03/07 08:52:56;;;;;;;30.00;21.52;;;;;;;5.23;100.00;102311.72;5111427;28;20047;-72
2024/03/07 08:55:44;;;;;;;28.67;21.83;;;;;;;5.30;100.00;102322.56;5099430;28;20060;-72
2024/03/07 08:58:33;;;;;;;29.80;20.98;;;;;;;5.32;100.00;102309.72;5107316;28;20056;-72
2024/03/07 09:01:21;;;;;;;27.90;21.50;;;;;;;5.38;100.00;102306.19;5104539;28;20052;-72
2024/03/07 09:04:09;;;;;;;30.95;22.63;;;;;;;5.45;100.00;102298.97;5103494;28;20050;-71
2024/03/07 09:06:58;;;;;;;33.13;22.58;;;;;;;5.55;100.00;102298.63;5123150;27;20119;-72
2024/03/07 09:09:46;;;;;;;31.75;22.67;;;;;;;5.54;100.00;102289.69;5108943;28;20050;-72
2024/03/07 09:12:36;;;;;;;27.13;21.77;;;;;;;5.56;100.00;102294.91;5106382;28;20103;-72
2024/03/07 09:15:24;;;;;;;29.20;20.88;;;;;;;5.58;100.00;102292.84;5092647;28;20066;-71
2024/03/07 09:18:13;;;;;;;28.35;20.77;;;;;;;5.68;100.00;102289.78;5101380;28;20189;-72
2024/03/07 09:21:01;;;;;;;26.83;20.17;;;;;;;5.73;100.00;102287.31;5113730;28;20048;-72
2024/03/07 09:23:50;;;;;;;26.45;19.58;;;;;;;5.73;100.00;102287.31;5112185;28;20131;-70
2024/03/07 09:26:39;;;;;;;29.60;20.38;;;;;;;5.75;100.00;102287.94;5092366;28;20059;-71
2024/03/07 09:29:30;;;;;;;28.17;18.90;;;;;;;5.81;100.00;102291.72;5063419;28;20465;-71
2024/03/07 09:32:21;;;;;;;30.15;19.83;;;;;;;5.81;100.00;102287.13;5105020;28;20051;-71
2024/03/07 09:35:13;;;;;;;23.48;17.77;;;;;;;5.89;100.00;102286.97;5108937;28;20074;-72
2024/03/07 09:38:03;;;;;;;26.88;19.13;;;;;;;5.94;100.00;102287.25;5094924;28;20055;-71
2024/03/07 09:40:51;;;;;;;23.70;17.95;;;;;;;5.97;100.00;102278.72;5073453;28;20044;-69
2024/03/07 09:43:39;;;;;;;27.17;17.75;;;;;;;6.06;100.00;102287.50;5080819;28;20181;-71
2024/03/07 09:46:28;;;;;;;25.63;19.23;;;;;;;6.00;100.00;102279.34;5073769;28;20110;-72
2024/03/07 09:49:17;;;;;;;26.73;18.35;;;;;;;6.05;100.00;102280.41;5083418;28;20047;-71
2024/03/07 09:52:11;;;;;;;25.83;18.80;;;;;;;6.09;100.00;102273.56;5110789;28;20424;-71
2024/03/07 09:55:00;;;;;;;27.65;18.98;;;;;;;6.18;100.00;102276.91;5082129;28;20071;-71
2024/03/07 09:57:50;;;;;;;25.33;18.58;;;;;;;6.27;100.00;102273.00;5093318;28;20523;-71
2024/03/07 10:00:40;;;;;;;27.45;18.95;;;;;;;6.31;100.00;102274.25;5096518;28;20059;-72
2024/03/07 10:03:29;;;;;;;24.48;18.38;;;;;;;6.29;100.00;102270.91;5076371;28;20052;-71
2024/03/07 10:06:18;;;;;;;26.52;18.30;;;;;;;6.28;100.00;102266.56;5084075;28;20186;-71
2024/03/07 10:09:07;;;;;;;27.33;18.95;;;;;;;6.28;100.00;102266.56;5090713;28;20043;-71
2024/03/07 10:11:58;;;;;;;26.15;18.30;;;;;;;6.31;100.00;102259.91;5110470;28;20052;-72
2024/03/07 10:14:50;;;;;;;22.67;17.33;;;;;;;6.35;100.00;102269.25;5110650;28;20097;-70
2024/03/07 10:17:42;;;;;;;23.92;15.20;;;;;;;6.42;100.00;102264.69;5107601;28;20414;-71
2024/03/07 10:20:35;;;;;;;23.20;16.80;;;;;;;6.47;100.00;102261.38;5089086;28;20051;-71
2024/03/07 10:23:24;;;;;;;24.35;18.25;;;;;;;6.51;100.00;102254.53;5063019;28;20189;-71
2024/03/07 10:26:12;;;;;;;22.73;17.25;;;;;;;6.54;100.00;102259.50;5101303;28;20104;-70
2024/03/07 10:29:00;;;;;;;23.75;16.67;;;;;;;6.58;100.00;102255.38;5108056;28;20407;-69
2024/03/07 10:31:50;;;;;;;24.10;18.73;;;;;;;6.58;100.00;102258.06;5081166;28;20557;-71
2024/03/07 10:34:51;;;;;;;27.00;19.65;;;;;;;6.63;100.00;102244.75;5098040;28;20043;-70
2024/03/07 10:37:40;;;;;;;25.70;19.55;;;;;;;6.64;100.00;102254.56;5082756;28;20518;-71
2024/03/07 10:40:29;;;;;;;29.27;20.98;;;;;;;6.64;100.00;102241.00;5076236;28;20126;-71
2024/03/07 10:43:19;;;;;;;26.95;20.42;;;;;;;6.66;100.00;102246.19;5082016;28;20434;-71
2024/03/07 10:46:09;;;;;;;27.92;19.67;;;;;;;6.70;100.00;102237.47;5095795;28;20401;-71
2024/03/07 10:49:00;;;;;;;30.42;19.60;;;;;;;6.69;100.00;102238.50;5082070;28;20044;-72
2024/03/07 10:51:56;;;;;;;28.13;20.70;;;;;;;6.73;100.00;102234.31;5082416;28;20043;-71
2024/03/07 10:54:52;;;;;;;31.40;20.48;;;;;;;6.81;98.52;102228.72;5109604;28;20043;-71
2024/03/07 10:57:54;;;;;;;28.58;19.15;;;;;;;6.87;96.52;102235.16;5109030;28;20085;-71
2024/03/07 11:00:48;;;;;;;25.98;18.95;;;;;;;6.94;94.71;102219.75;5092377;28;20040;-70
2024/03/07 11:03:38;;;;;;;26.00;20.03;;;;;;;6.99;93.90;102221.84;5093304;28;20048;-68
2024/03/07 11:06:26;;;;;;;28.52;19.65;;;;;;;7.07;95.55;102220.78;5108307;28;20738;-71
2024/03/07 11:09:22;;;;;;;28.13;17.35;;;;;;;7.12;95.55;102224.53;5079859;28;20536;-70
2024/03/07 11:12:11;;;;;;;;;;;;;;;7.19;94.09;102211.81;5094922;28;20472;-70
2024/03/07 11:15:00;;;;;;;25.30;17.27;;;;;;;7.23;95.07;102204.91;5092242;28;20387;-70
2024/03/07 11:17:49;;;;;;;28.30;19.67;;;;;;;7.29;94.81;102203.25;4739507;28;10000531;-71
2024/03/07 11:20:39;;;;;;;26.98;18.70;;;;;;;7.33;94.19;102203.66;5084733;28;20526;-70
2024/03/07 11:23:29;;;;;;;23.50;15.68;;;;;;;7.33;94.96;102209.06;5109191;28;20043;-70
2024/03/07 11:26:17;;;;;;;24.67;16.08;;;;;;;7.38;95.84;102201.94;5110657;28;20044;-69
2024/03/07 11:29:44;;;;;;;27.27;18.88;;;;;;;7.37;96.48;102204.91;5096416;28;20418;-69
2024/03/07 11:32:37;;;;;;;26.45;18.30;;;;;;;7.40;95.69;102207.16;5109679;27;20094;-70
2024/03/07 11:35:35;;;;;;;25.38;17.40;;;;;;;7.37;95.18;102204.91;5107861;28;20404;-69
2024/03/07 11:38:34;;;;;;;27.92;18.05;;;;;;;7.35;96.04;102194.25;5070112;28;20048;-69
2024/03/07 11:41:23;;;;;;;24.25;17.38;;;;;;;7.34;96.25;102189.88;5110958;27;20411;-70
2024/03/07 11:44:13;;;;;;;27.20;18.00;;;;;;;7.35;97.85;102191.53;5096094;27;20047;-70
2024/03/07 11:47:08;;;;;;;26.65;18.88;;;;;;;7.36;97.05;102187.81;5103992;28;20089;-70
2024/03/07 11:49:57;;;;;;;21.65;14.30;;;;;;;7.41;98.38;102179.03;5110274;28;20476;-70
2024/03/07 11:52:46;;;;;;;31.00;18.95;;;;;;;7.40;97.48;102166.50;5089719;28;20063;-70
2024/03/07 11:55:45;;;;;;;26.25;17.00;;;;;;;7.40;98.73;102172.75;5075957;28;20055;-70
2024/03/07 11:58:34;;;;;;;25.25;17.30;;;;;;;7.40;100.00;102171.91;5086569;27;20091;-70
2024/03/07 12:01:25;;;;;;;25.10;17.92;;;;;;;7.36;98.90;102162.53;5101529;27;20576;-71
2024/03/07 12:04:15;;;;;;;25.17;16.40;;;;;;;7.35;100.00;102153.56;5079502;28;20054;-71
2024/03/07 12:07:05;;;;;;;21.77;15.65;;;;;;;7.42;100.00;102148.13;5089274;28;20048;-70
2024/03/07 12:09:55;;;;;;;23.88;15.45;;;;;;;7.46;99.40;102152.09;5104585;28;20048;-70
2024/03/07 12:12:45;;;;;;;20.98;15.45;;;;;;;7.49;99.47;102143.53;5096702;27;20047;-73
2024/03/07 12:15:34;;;;;;;19.80;13.32;;;;;;;7.53;98.09;102144.75;5085426;28;20473;-70
2024/03/07 12:18:23;;;;;;;20.52;15.35;;;;;;;7.56;99.29;102132.66;5074315;28;20048;-70
2024/03/07 12:21:12;;;;;;;22.50;15.68;;;;;;;7.56;98.91;102121.81;5083427;28;20173;-70
2024/03/07 12:24:15;;;;;;;22.17;16.27;;;;;;;7.56;99.21;102127.22;5111195;27;20061;-70
2024/03/07 12:27:09;;;;;;;24.02;15.88;;;;;;;7.59;98.70;102116.75;5094479;28;20044;-70
2024/03/07 12:29:57;;;;;;;26.30;16.95;;;;;;;7.63;98.38;102111.75;5067859;28;20044;-70
2024/03/07 12:32:52;;;;;;;22.15;15.82;;;;;;;7.63;98.38;102112.59;5094640;28;20044;-70
2024/03/07 12:35:43;;;;;;;22.67;17.08;;;;;;;7.65;98.52;102105.06;5075165;28;20071;-69
2024/03/07 12:38:35;;;;;;;21.35;14.45;;;;;;;7.70;98.63;102107.13;5060455;28;20044;-70
2024/03/07 12:41:24;;;;;;;24.77;16.52;;;;;;;7.72;96.81;102101.47;5108607;28;20415;-69
2024/03/07 12:44:14;;;;;;;21.75;16.08;;;;;;;7.77;97.91;102088.06;5092875;28;20047;-71
2024/03/07 12:47:04;;;;;;;20.75;14.85;;;;;;;7.80;98.32;102087.66;5095624;28;20047;-69
2024/03/07 12:49:52;;;;;;;21.63;15.45;;;;;;;7.84;97.54;102091.59;5084687;28;20500;-69
2024/03/07 12:52:40;;;;;;;21.40;14.10;;;;;;;7.80;99.30;102079.53;5084190;28;20048;-68